Time;durP1;ratioP1;P1;durP2;ratioP2;P2;SDS_P1;SDS_P2;PMS_P1;PMS_P2;Temp;Humidity;BMP_temperature;BMP_pressure;BME280_temperature;BME280_humidity;BME280_pressure;Samples;Min_cycle;Max_cycle;Signal;HPM_P1;HPM_P2
2021/09/28 00:00:04;;;;;;;0.40;0.40;;;;;;;18.84;66.05;99334.22;6258821;22;38826;-85
2021/09/28 00:02:41;;;;;;;0.40;0.40;;;;;;;18.63;65.81;99339.66;6284086;22;41096;-87
2021/09/28 00:05:14;;;;;;;0.20;0.20;;;;;;;18.48;64.62;99346.34;6257610;22;41929;-87
2021/09/28 00:07:41;;;;;;;0.30;0.30;;;;;;;18.41;64.06;99361.28;6258370;22;41353;-91
2021/09/28 00:10:09;;;;;;;0.63;0.20;;;;;;;18.38;63.26;99372.25;6257156;22;39126;-88
2021/09/28 00:12:36;;;;;;;0.20;0.20;;;;;;;18.31;63.10;99388.88;6258047;22;40618;-87
2021/09/28 00:15:05;;;;;;;0.37;0.37;;;;;;;18.13;63.92;99376.19;6258560;22;41802;-91
2021/09/28 00:17:41;;;;;;;0.23;0.23;;;;;;;17.46;65.67;99321.06;6258397;22;41592;-85
2021/09/28 00:20:10;;;;;;;0.30;0.30;;;;;;;17.41;66.84;99360.78;6275955;22;39224;-88
2021/09/28 00:22:38;;;;;;;0.30;0.30;;;;;;;17.16;68.24;99361.09;6260063;22;41220;-83
2021/09/28 00:25:08;;;;;;;0.40;0.40;;;;;;;17.12;68.45;99381.03;6260199;22;43335;-91
2021/09/28 00:27:36;;;;;;;0.30;0.30;;;;;;;16.99;68.77;99375.84;6260536;22;42639;-86
2021/09/28 00:30:04;;;;;;;0.20;0.20;;;;;;;17.00;69.29;99384.72;6259047;22;38884;-83
2021/09/28 00:32:32;;;;;;;0.43;0.43;;;;;;;16.90;69.52;99392.63;6259507;22;40596;-90
2021/09/28 00:35:01;;;;;;;0.30;0.30;;;;;;;16.78;69.54;99378.41;6260493;22;42772;-88
2021/09/28 00:37:29;;;;;;;0.30;0.30;;;;;;;16.75;69.33;99373.31;6306954;22;42584;-85
2021/09/28 00:39:56;;;;;;;0.70;0.40;;;;;;;16.80;69.48;99378.28;6258174;22;38791;-83
2021/09/28 00:42:24;;;;;;;0.50;0.50;;;;;;;16.80;69.42;99392.53;6257938;22;41881;-87
2021/09/28 00:44:51;;;;;;;0.30;0.30;;;;;;;16.79;69.36;99384.63;6259273;22;41536;-87
2021/09/28 00:47:19;;;;;;;0.50;0.50;;;;;;;16.84;69.45;99391.28;6259662;22;41366;-87
2021/09/28 00:49:48;;;;;;;0.30;0.30;;;;;;;16.82;69.28;99392.38;6236822;22;39068;-90
2021/09/28 00:52:20;;;;;;;0.20;0.20;;;;;;;16.86;69.11;99402.72;6262185;22;41686;-89
2021/09/28 00:54:48;;;;;;;0.37;0.37;;;;;;;16.87;69.22;99414.28;6261438;22;41895;-87
2021/09/28 00:57:16;;;;;;;0.40;0.40;;;;;;;16.83;69.31;99413.66;6259698;22;41544;-87
2021/09/28 00:59:45;;;;;;;0.30;0.30;;;;;;;16.79;69.41;99406.03;6260450;22;40315;-84
2021/09/28 01:02:14;;;;;;;0.20;0.20;;;;;;;16.73;69.00;99395.78;6313406;22;42062;-85
2021/09/28 01:04:42;;;;;;;0.20;0.20;;;;;;;16.73;68.73;99396.63;6263055;22;41991;-82
2021/09/28 01:07:11;;;;;;;0.40;0.40;;;;;;;16.64;69.07;99381.31;6261080;22;41068;-89
2021/09/28 01:09:40;;;;;;;0.30;0.30;;;;;;;16.81;68.59;99412.91;6260622;22;38796;-87
2021/09/28 01:12:10;;;;;;;0.30;0.30;;;;;;;16.80;68.48;99411.25;6262848;22;41047;-86
2021/09/28 01:14:38;;;;;;;0.50;0.30;;;;;;;16.71;68.44;99403.06;6260359;22;41748;-85
2021/09/28 01:17:10;;;;;;;0.50;0.50;;;;;;;16.67;68.51;99415.88;6257778;22;41580;-85
2021/09/28 01:19:38;;;;;;;0.37;0.20;;;;;;;16.76;68.22;99427.66;6259796;22;39042;-86
2021/09/28 01:22:09;;;;;;;0.83;0.47;;;;;;;16.66;68.29;99422.19;6259404;22;40656;-86
2021/09/28 01:24:37;;;;;;;0.30;0.30;;;;;;;16.65;67.79;99420.47;6258292;22;41850;-89
2021/09/28 01:27:06;;;;;;;0.30;0.30;;;;;;;16.72;68.16;99435.06;6258897;22;42236;-87
2021/09/28 01:29:40;;;;;;;0.40;0.40;;;;;;;16.72;68.04;99452.94;6284339;22;39292;-91
2021/09/28 01:32:09;;;;;;;0.40;0.30;;;;;;;16.61;67.89;99429.66;6283582;22;41961;-86
2021/09/28 01:34:37;;;;;;;0.30;0.30;;;;;;;16.64;67.75;99447.34;6284245;22;42602;-89
2021/09/28 01:37:05;;;;;;;0.50;0.50;;;;;;;16.52;67.76;99428.56;6258153;22;41170;-88
2021/09/28 01:39:34;;;;;;;0.30;0.30;;;;;;;16.50;67.49;99435.84;6285645;22;39991;-94
2021/09/28 01:42:02;;;;;;;0.60;0.60;;;;;;;16.51;67.50;99428.69;6259866;22;41008;-90
2021/09/28 01:44:33;;;;;;;0.50;0.50;;;;;;;16.38;68.39;99427.94;6260147;22;42819;-86
2021/09/28 01:47:01;;;;;;;0.40;0.40;;;;;;;16.25;69.02;99422.69;6258070;22;42681;-85
2021/09/28 01:49:29;;;;;;;0.60;0.60;;;;;;;16.23;69.64;99431.78;6279512;22;39148;-89
2021/09/28 01:51:56;;;;;;;1.07;0.97;;;;;;;16.10;70.11;99424.69;6257830;22;40880;-88
2021/09/28 01:54:24;;;;;;;0.77;0.50;;;;;;;16.00;70.26;99418.34;6256263;22;42098;-85
2021/09/28 01:56:53;;;;;;;0.60;0.50;;;;;;;16.00;70.48;99434.38;6257074;22;42521;-84
2021/09/28 01:59:20;;;;;;;0.50;0.50;;;;;;;15.75;71.31;99407.81;6256012;22;39293;-85
2021/09/28 02:01:48;;;;;;;1.77;0.63;;;;;;;15.79;71.12;99436.84;6257662;22;41693;-83
2021/09/28 02:04:16;;;;;;;0.70;0.70;;;;;;;15.75;71.23;99438.03;6275153;22;41565;-87
2021/09/28 02:06:44;;;;;;;0.97;0.80;;;;;;;15.77;71.09;99453.94;6310376;22;43584;-87
2021/09/28 02:09:11;;;;;;;0.50;0.50;;;;;;;15.71;71.38;99451.72;6283348;22;40262;-86
2021/09/28 02:11:42;;;;;;;0.70;0.50;;;;;;;15.64;71.69;99447.81;6257562;22;40932;-85
2021/09/28 02:14:11;;;;;;;0.63;0.63;;;;;;;15.73;71.64;99473.81;6258221;22;42032;-85
2021/09/28 02:16:39;;;;;;;0.40;0.40;;;;;;;15.66;71.89;99461.91;6257983;22;41704;-85
2021/09/28 02:19:06;;;;;;;1.07;0.50;;;;;;;15.72;71.96;99482.81;6258695;22;40452;-89
2021/09/28 02:21:34;;;;;;;1.43;0.70;;;;;;;15.73;71.79;99480.03;6257097;22;41923;-90
2021/09/28 02:24:02;;;;;;;0.60;0.60;;;;;;;15.63;72.10;99465.66;6257618;22;42150;-87
2021/09/28 02:26:30;;;;;;;1.47;0.60;;;;;;;15.72;72.27;99480.13;6277458;22;41440;-83
2021/09/28 02:28:57;;;;;;;1.00;0.90;;;;;;;15.73;71.96;99481.84;6257155;22;40412;-88
2021/09/28 02:31:28;;;;;;;0.40;0.40;;;;;;;15.69;71.53;99483.06;6257974;22;41594;-85
2021/09/28 02:33:56;;;;;;;0.60;0.60;;;;;;;15.70;71.45;99484.75;6284584;22;42692;-89
2021/09/28 02:36:30;;;;;;;0.60;0.60;;;;;;;15.77;71.70;99496.69;6260199;22;41731;-84
2021/09/28 02:38:57;;;;;;;0.70;0.70;;;;;;;15.77;71.61;99496.69;6288227;22;39008;-83
2021/09/28 02:41:25;;;;;;;0.77;0.60;;;;;;;15.63;71.31;99478.16;6261432;22;41125;-82
2021/09/28 02:43:53;;;;;;;0.73;0.70;;;;;;;15.74;71.19;99504.91;6257960;22;41978;-84
2021/09/28 02:46:20;;;;;;;0.50;0.50;;;;;;;15.75;71.64;99507.47;6263277;22;41680;-86
2021/09/28 02:48:56;;;;;;;0.77;0.70;;;;;;;15.76;71.29;99508.31;6262849;22;39005;-85
2021/09/28 02:51:24;;;;;;;0.90;0.80;;;;;;;15.69;71.01;99499.06;6234953;22;40783;-84
2021/09/28 02:53:52;;;;;;;0.50;0.50;;;;;;;15.78;71.34;99512.59;6287912;22;43966;-86
2021/09/28 02:56:20;;;;;;;1.10;0.80;;;;;;;15.78;71.45;99506.41;6312616;22;42838;-86
2021/09/28 02:58:47;;;;;;;0.53;0.53;;;;;;;15.45;71.82;99462.47;6261758;22;38989;-85
2021/09/28 03:01:15;;;;;;;0.50;0.50;;;;;;;15.78;71.51;99511.75;6285430;22;40905;-89
2021/09/28 03:03:43;;;;;;;0.67;0.50;;;;;;;15.81;71.26;99522.22;6260140;22;42143;-88
2021/09/28 03:06:12;;;;;;;2.50;0.97;;;;;;;15.74;71.39;99512.94;6258556;22;41559;-89
2021/09/28 03:08:40;;;;;;;0.83;0.73;;;;;;;15.80;71.55;99515.16;6311332;22;40315;-85
2021/09/28 03:11:10;;;;;;;1.20;0.97;;;;;;;15.72;71.93;99509.50;6263596;22;42030;-88
2021/09/28 03:13:38;;;;;;;0.90;0.90;;;;;;;15.77;71.72;99512.72;6260806;22;42166;-82
2021/09/28 03:16:06;;;;;;;0.80;0.80;;;;;;;15.75;71.68;99515.50;6260466;22;41325;-88
2021/09/28 03:18:34;;;;;;;0.90;0.90;;;;;;;15.73;71.91;99500.53;6260707;22;39003;-90
2021/09/28 03:21:01;;;;;;;1.03;0.90;;;;;;;15.88;71.30;99528.78;6277457;22;40666;-82
2021/09/28 03:23:31;;;;;;;2.60;0.70;;;;;;;15.77;71.60;99515.38;6289194;22;42143;-83
2021/09/28 03:25:58;;;;;;;0.60;0.60;;;;;;;15.89;71.27;99533.19;6263354;22;41261;-88
2021/09/28 03:28:26;;;;;;;1.30;1.20;;;;;;;15.90;71.51;99539.38;6264515;22;39096;-81
2021/09/28 03:30:54;;;;;;;1.00;1.00;;;;;;;15.86;71.77;99536.06;6263967;22;40939;-83
2021/09/28 03:33:21;;;;;;;2.10;1.20;;;;;;;15.82;71.53;99536.41;6261951;22;43097;-84
2021/09/28 03:35:49;;;;;;;2.40;1.37;;;;;;;15.76;71.76;99525.22;6262144;22;41439;-86
2021/09/28 03:38:16;;;;;;;2.13;1.57;;;;;;;15.84;72.03;99546.00;6259315;22;38985;-85
2021/09/28 03:40:45;;;;;;;1.53;1.20;;;;;;;15.69;71.75;99525.78;6268869;22;41081;-87
2021/09/28 03:43:13;;;;;;;1.20;1.10;;;;;;;15.82;71.65;99553.31;6307813;22;42951;-85
2021/09/28 03:45:41;;;;;;;1.67;1.50;;;;;;;15.71;72.27;99540.69;6283368;22;41089;-83
2021/09/28 03:48:09;;;;;;;1.30;1.20;;;;;;;15.79;72.32;99564.19;6283681;22;40317;-85
2021/09/28 03:50:38;;;;;;;1.33;1.23;;;;;;;15.74;72.16;99551.16;6308942;22;41699;-84
2021/09/28 03:53:06;;;;;;;1.83;0.97;;;;;;;15.79;72.39;99561.53;6284186;22;43194;-83
2021/09/28 03:55:36;;;;;;;1.87;1.63;;;;;;;15.71;71.85;99553.19;6301207;22;42225;-86
2021/09/28 03:58:07;;;;;;;2.70;1.17;;;;;;;15.73;72.11;99553.94;6285912;22;39122;-81
2021/09/28 04:00:37;;;;;;;1.30;1.20;;;;;;;15.82;71.98;99567.47;6296640;22;41249;-82
2021/09/28 04:03:05;;;;;;;2.00;1.60;;;;;;;15.81;72.11;99567.63;6295974;22;41755;-82
2021/09/28 04:05:33;;;;;;;2.10;1.50;;;;;;;15.75;72.04;99557.38;6294082;22;41688;-81
2021/09/28 04:08:01;;;;;;;1.73;1.47;;;;;;;15.68;71.91;99543.63;6267453;22;39997;-85
2021/09/28 04:10:29;;;;;;;2.17;1.77;;;;;;;15.81;72.28;99570.28;6284711;22;40575;-86
2021/09/28 04:12:56;;;;;;;2.43;1.23;;;;;;;15.71;72.54;99554.06;6290353;22;43530;-82
2021/09/28 04:15:25;;;;;;;1.63;1.23;;;;;;;15.74;72.34;99561.84;6265871;22;41399;-84
2021/09/28 04:17:53;;;;;;;2.13;1.33;;;;;;;15.79;72.05;99566.88;6265032;22;38945;-85
2021/09/28 04:20:22;;;;;;;2.30;1.60;;;;;;;15.76;72.33;99569.75;6266788;22;41099;-84
2021/09/28 04:22:49;;;;;;;1.30;1.17;;;;;;;15.64;72.14;99555.47;6293772;22;41867;-82
2021/09/28 04:25:17;;;;;;;1.50;1.40;;;;;;;15.60;71.94;99550.44;6268471;22;42075;-82
2021/09/28 04:27:45;;;;;;;1.43;1.30;;;;;;;15.56;72.15;99557.00;6267418;22;39792;-83
2021/09/28 04:30:13;;;;;;;1.63;1.43;;;;;;;15.58;72.22;99573.75;6295807;22;42191;-82
2021/09/28 04:32:44;;;;;;;2.30;2.07;;;;;;;15.42;71.96;99556.13;6292151;22;41645;-81
2021/09/28 04:35:12;;;;;;;1.67;1.30;;;;;;;15.41;72.11;99564.25;6295942;22;42909;-81
2021/09/28 04:37:39;;;;;;;2.00;1.80;;;;;;;15.28;72.90;99558.91;6270024;22;39638;-84
2021/09/28 04:40:08;;;;;;;1.70;1.13;;;;;;;15.20;72.89;99566.63;6294816;22;41954;-84
2021/09/28 04:42:35;;;;;;;1.77;1.27;;;;;;;15.03;73.21;99562.47;6270595;22;41623;-82
2021/09/28 04:45:05;;;;;;;2.93;2.37;;;;;;;15.04;73.14;99579.31;6295209;22;41049;-82
2021/09/28 04:47:32;;;;;;;1.93;1.80;;;;;;;14.86;73.30;99567.22;6297093;22;40461;-82
2021/09/28 04:50:03;;;;;;;2.63;1.90;;;;;;;14.78;73.68;99565.09;6269916;22;41893;-81
2021/09/28 04:52:31;;;;;;;4.60;2.37;;;;;;;14.73;73.93;99581.41;6295316;22;43506;-84
2021/09/28 04:55:06;;;;;;;2.40;1.90;;;;;;;14.63;73.74;99582.13;6268550;22;41601;-83
2021/09/28 04:57:35;;;;;;;2.20;1.80;;;;;;;14.68;73.72;99596.88;6268517;22;39214;-81
2021/09/28 05:00:04;;;;;;;2.53;1.93;;;;;;;14.51;73.79;99578.50;6294985;22;42008;-82
2021/09/28 05:02:32;;;;;;;2.10;1.67;;;;;;;14.45;73.51;99572.72;6270020;22;43114;-81
2021/09/28 05:05:01;;;;;;;2.73;1.63;;;;;;;14.41;73.57;99572.06;6270115;22;41325;-82
2021/09/28 05:07:36;;;;;;;2.57;2.10;;;;;;;14.36;73.92;99576.81;6268909;22;40551;-83
2021/09/28 05:10:17;;;;;;;2.63;2.00;;;;;;;14.31;73.98;99587.78;6293027;22;42486;-82
2021/09/28 05:12:45;;;;;;;1.80;1.40;;;;;;;14.31;73.70;99592.25;6244488;22;42895;-82
2021/09/28 05:15:13;;;;;;;1.43;1.33;;;;;;;14.26;73.88;99589.88;6268825;22;41482;-78
2021/09/28 05:17:41;;;;;;;1.63;1.53;;;;;;;14.23;73.57;99594.56;6268223;22;39813;-79
2021/09/28 05:20:11;;;;;;;1.30;1.20;;;;;;;14.18;73.45;99594.88;6287112;22;40548;-80
2021/09/28 05:22:39;;;;;;;3.27;2.07;;;;;;;14.13;73.70;99601.44;6293978;22;43263;-79
2021/09/28 05:25:07;;;;;;;2.03;1.73;;;;;;;13.99;73.79;99589.88;6319882;22;45465;-80
2021/09/28 05:27:35;;;;;;;2.63;1.87;;;;;;;14.01;73.79;99600.44;6293801;22;40050;-79
2021/09/28 05:30:03;;;;;;;1.33;1.00;;;;;;;14.06;73.77;99613.47;6269196;22;40553;-81
2021/09/28 05:32:30;;;;;;;2.50;2.20;;;;;;;14.05;73.75;99617.09;6294532;22;41509;-80
2021/09/28 05:34:58;;;;;;;3.03;2.33;;;;;;;14.05;74.07;99617.09;6320888;22;42748;-82
2021/09/28 05:37:27;;;;;;;4.27;2.47;;;;;;;14.01;74.21;99606.63;6268083;22;38939;-80
2021/09/28 05:39:55;;;;;;;3.53;1.90;;;;;;;13.99;74.32;99608.53;6322000;22;42377;-82
2021/09/28 05:42:29;;;;;;;2.33;1.80;;;;;;;13.90;74.45;99601.13;6317577;22;43520;-89
2021/09/28 05:44:57;;;;;;;2.93;2.43;;;;;;;13.91;74.78;99610.84;6265523;22;42376;-81
2021/09/28 05:47:25;;;;;;;2.80;1.93;;;;;;;14.03;74.71;99630.50;6287161;22;40255;-81
2021/09/28 05:49:59;;;;;;;2.17;1.60;;;;;;;14.05;74.82;99622.41;6275047;22;43850;-83
2021/09/28 05:52:37;;;;;;;3.17;2.20;;;;;;;13.93;74.91;99605.41;6253961;22;42319;-83
2021/09/28 05:55:06;;;;;;;2.17;1.63;;;;;;;13.98;74.67;99620.13;6280623;22;41587;-86
2021/09/28 05:57:36;;;;;;;2.87;2.03;;;;;;;14.00;74.58;99620.88;6255463;22;39107;-87
2021/09/28 06:00:05;;;;;;;1.73;1.37;;;;;;;14.06;74.45;99629.44;6281518;22;41990;-84
2021/09/28 06:02:41;;;;;;;1.70;1.27;;;;;;;14.12;74.23;99645.88;6307955;22;42993;-84
2021/09/28 06:05:10;;;;;;;1.23;1.07;;;;;;;14.03;74.38;99634.00;6270894;22;42215;-84
2021/09/28 06:07:39;;;;;;;2.93;2.03;;;;;;;14.17;74.40;99648.25;6280605;22;40367;-82
2021/09/28 06:10:07;;;;;;;3.93;2.60;;;;;;;14.14;74.32;99643.13;6280364;22;40694;-82
2021/09/28 06:12:35;;;;;;;4.10;2.67;;;;;;;14.12;74.14;99634.38;6279508;22;41651;-86
2021/09/28 06:15:04;;;;;;;4.00;2.70;;;;;;;14.16;74.23;99635.88;6254694;22;41721;-87
2021/09/28 06:17:32;;;;;;;6.43;4.47;;;;;;;14.26;73.97;99642.31;6280301;22;39479;-85
2021/09/28 06:19:59;;;;;;;4.83;3.37;;;;;;;14.31;73.75;99646.41;6280729;22;40762;-86
2021/09/28 06:22:27;;;;;;;5.33;3.57;;;;;;;14.38;73.46;99649.50;6255162;22;42075;-82
2021/09/28 06:24:56;;;;;;;5.83;3.67;;;;;;;14.42;73.75;99647.53;6268236;22;41484;-85
2021/09/28 06:27:25;;;;;;;5.17;4.00;;;;;;;14.47;73.80;99646.28;6281036;22;41014;-82
2021/09/28 06:29:53;;;;;;;5.47;3.00;;;;;;;14.53;73.44;99645.03;6281487;22;41769;-82
2021/09/28 06:32:22;;;;;;;6.83;3.13;;;;;;;14.48;73.37;99626.66;6255748;22;41701;-84
2021/09/28 06:34:50;;;;;;;4.03;2.90;;;;;;;14.60;73.07;99643.66;6280425;22;42288;-85
2021/09/28 06:37:18;;;;;;;3.47;2.47;;;;;;;14.75;73.42;99653.31;6255525;22;39126;-81
2021/09/28 06:39:46;;;;;;;4.67;2.70;;;;;;;14.83;73.28;99664.34;6281637;22;41227;-84
2021/09/28 06:42:15;;;;;;;4.30;3.00;;;;;;;14.92;73.36;99666.38;6255818;22;42988;-85
2021/09/28 06:44:43;;;;;;;5.23;3.10;;;;;;;14.91;73.17;99653.13;6256482;22;41041;-87
2021/09/28 06:47:10;;;;;;;2.73;2.20;;;;;;;14.99;72.79;99658.78;6255776;22;40560;-85
2021/09/28 06:49:45;;;;;;;2.07;1.83;;;;;;;15.00;72.87;99644.50;6281853;22;41195;-86
2021/09/28 06:52:13;;;;;;;3.13;2.57;;;;;;;15.23;72.65;99669.59;6256022;22;41719;-85
2021/09/28 06:54:41;;;;;;;2.20;1.77;;;;;;;15.31;72.22;99670.81;6281858;22;42221;-84
2021/09/28 06:57:08;;;;;;;2.03;1.67;;;;;;;15.45;72.08;99667.19;6255854;22;39274;-81
2021/09/28 06:59:38;;;;;;;2.40;1.67;;;;;;;15.56;71.74;99667.31;6307426;22;42862;-82
2021/09/28 07:02:06;;;;;;;2.03;1.63;;;;;;;15.66;71.89;99672.84;6256395;22;42070;-82
2021/09/28 07:04:33;;;;;;;2.47;1.80;;;;;;;15.74;71.57;99667.81;6280856;22;42406;-80
2021/09/28 07:07:02;;;;;;;2.07;1.87;;;;;;;15.66;71.41;99644.34;6271026;22;39216;-82
2021/09/28 07:09:29;;;;;;;2.97;2.13;;;;;;;15.86;71.17;99666.94;6281651;22;41023;-84
2021/09/28 07:12:04;;;;;;;2.73;2.13;;;;;;;16.04;70.88;99678.16;6232118;22;42842;-85
2021/09/28 07:14:31;;;;;;;2.27;2.07;;;;;;;16.10;70.71;99664.34;6255546;22;45103;-82
2021/09/28 07:17:01;;;;;;;2.27;1.90;;;;;;;16.24;70.29;99668.69;6256083;22;39102;-80
2021/09/28 07:19:28;;;;;;;2.93;2.33;;;;;;;16.49;69.68;99688.16;6255093;22;41000;-79
2021/09/28 07:21:56;;;;;;;2.47;1.97;;;;;;;16.67;69.58;99691.34;6254980;22;41921;-79
2021/09/28 07:24:24;;;;;;;4.03;2.53;;;;;;;17.30;67.54;99671.38;6281470;22;41520;-83
2021/09/28 07:26:52;;;;;;;2.33;2.00;;;;;;;17.64;66.79;99693.75;6281465;22;39219;-83
2021/09/28 07:29:20;;;;;;;3.17;2.40;;;;;;;17.80;66.59;99682.69;6281497;22;41686;-84
2021/09/28 07:31:48;;;;;;;2.70;2.17;;;;;;;18.12;65.21;99694.34;6281349;22;42835;-84
2021/09/28 07:34:17;;;;;;;2.30;2.17;;;;;;;19.05;63.32;99699.25;6255235;22;41430;-81
2021/09/28 07:36:44;;;;;;;2.17;1.60;;;;;;;20.61;59.49;99714.28;6308812;22;41047;-81
2021/09/28 07:39:14;;;;;;;1.67;1.57;;;;;;;20.89;57.77;99718.88;6254178;22;41072;-90
2021/09/28 07:41:41;;;;;;;1.83;1.70;;;;;;;20.62;57.63;99705.22;6280649;22;41840;-82
2021/09/28 07:44:09;;;;;;;3.27;2.30;;;;;;;20.38;57.76;99714.53;6281347;22;43322;-81
2021/09/28 07:46:37;;;;;;;2.50;2.30;;;;;;;20.16;57.78;99714.69;6281503;22;38971;-87
2021/09/28 07:49:04;;;;;;;3.80;3.07;;;;;;;19.90;57.99;99691.94;6256005;22;42371;-88
2021/09/28 07:51:34;;;;;;;7.60;4.70;;;;;;;19.69;58.46;99690.13;6255011;22;41900;-87
2021/09/28 07:54:01;;;;;;;2.70;2.50;;;;;;;19.76;57.90;99716.47;6255947;22;43058;-82
2021/09/28 07:56:29;;;;;;;3.57;2.53;;;;;;;19.82;58.59;99721.31;6280546;22;38887;-83
2021/09/28 07:58:57;;;;;;;4.20;2.50;;;;;;;19.81;57.89;99730.38;6256122;22;42064;-85
2021/09/28 08:01:24;;;;;;;3.00;2.57;;;;;;;20.02;56.83;99720.44;6255007;22;42821;-84
2021/09/28 08:03:53;;;;;;;2.30;2.03;;;;;;;20.19;57.11;99703.66;6281327;22;41640;-86
2021/09/28 08:06:21;;;;;;;5.13;3.07;;;;;;;20.28;55.82;99718.97;6254020;22;39923;-88
2021/09/28 08:08:50;;;;;;;3.60;2.60;;;;;;;20.15;55.71;99723.75;6255508;22;42027;-85
2021/09/28 08:11:18;;;;;;;2.53;2.23;;;;;;;21.64;53.92;99739.69;6255052;22;41965;-83
2021/09/28 08:13:46;;;;;;;1.90;1.80;;;;;;;22.67;51.17;99738.78;6309054;22;42130;-91
2021/09/28 08:16:14;;;;;;;1.67;1.53;;;;;;;22.77;50.89;99747.69;6255140;22;39003;-79
2021/09/28 08:18:41;;;;;;;2.63;2.40;;;;;;;22.34;50.67;99746.50;6254471;22;41051;-78
2021/09/28 08:21:09;;;;;;;2.40;2.20;;;;;;;21.86;51.38;99754.72;6255123;22;41909;-78
2021/09/28 08:23:37;;;;;;;2.17;1.93;;;;;;;21.40;51.93;99750.09;6308237;22;42420;-79
2021/09/28 08:29:10;;;;;;;2.97;2.23;;;;;;;21.32;52.25;99747.25;6242170;22;42161;-79
2021/09/28 08:31:40;;;;;;;2.30;2.10;;;;;;;21.60;51.95;99746.41;6256145;22;43126;-84
2021/09/28 08:34:09;;;;;;;2.13;1.93;;;;;;;23.88;47.89;99766.97;6254143;22;41662;-81
2021/09/28 08:36:36;;;;;;;2.20;1.80;;;;;;;25.50;43.93;99793.91;6280758;22;40105;-81
2021/09/28 08:39:05;;;;;;;1.63;1.50;;;;;;;26.35;41.86;99788.97;6254597;22;40969;-81
2021/09/28 08:41:42;;;;;;;1.70;1.57;;;;;;;26.91;40.16;99787.06;6255325;22;41887;-83
2021/09/28 08:44:10;;;;;;;1.60;1.50;;;;;;;26.76;40.85;99781.53;6254546;22;41374;-83
2021/09/28 08:46:47;;;;;;;1.60;1.50;;;;;;;26.77;40.32;99794.94;6281142;22;41084;-79
2021/09/28 08:49:16;;;;;;;1.87;1.77;;;;;;;26.58;40.99;99779.03;6254702;22;40689;-79
2021/09/28 08:51:44;;;;;;;2.03;1.93;;;;;;;26.28;41.13;99787.97;6279439;22;42082;-81
2021/09/28 08:54:12;;;;;;;1.93;1.83;;;;;;;26.36;40.51;99785.22;6280290;22;41244;-83
2021/09/28 08:56:41;;;;;;;1.70;1.60;;;;;;;26.32;40.61;99790.19;6281624;22;39122;-87
2021/09/28 08:59:10;;;;;;;1.30;1.20;;;;;;;25.64;41.21;99774.28;6281144;22;41970;-82
2021/09/28 09:01:54;;;;;;;1.40;1.20;;;;;;;25.45;41.49;99779.19;6276682;22;42761;-82
2021/09/28 09:04:23;;;;;;;1.60;1.50;;;;;;;25.56;41.73;99770.72;6308075;22;42711;-83
2021/09/28 09:06:57;;;;;;;1.30;1.20;;;;;;;26.04;40.95;99773.41;6256801;22;40379;-82
2021/09/28 09:09:25;;;;;;;1.23;1.13;;;;;;;26.33;40.74;99775.59;6255356;22;40706;-78
2021/09/28 09:11:58;;;;;;;1.50;1.40;;;;;;;25.95;40.86;99770.88;6307530;22;43069;-87
2021/09/28 09:14:27;;;;;;;1.47;1.37;;;;;;;25.72;41.45;99776.13;6280352;22;41132;-81
2021/09/28 09:17:01;;;;;;;2.17;1.27;;;;;;;25.64;42.08;99765.31;6307944;22;40280;-81
2021/09/28 09:19:32;;;;;;;1.80;1.30;;;;;;;25.50;41.33;99765.94;6254137;22;41842;-82
2021/09/28 09:22:01;;;;;;;1.67;1.47;;;;;;;25.09;41.26;99760.50;6280882;22;43169;-88
2021/09/28 09:24:46;;;;;;;1.50;1.40;;;;;;;24.63;42.03;99759.97;6254716;22;41235;-85
2021/09/28 09:27:30;;;;;;;1.20;1.10;;;;;;;24.10;42.94;99729.59;6280406;22;40076;-79
2021/09/28 09:30:08;;;;;;;1.43;1.20;;;;;;;23.98;43.63;99737.97;6279958;22;40723;-80
2021/09/28 09:32:45;;;;;;;2.67;1.60;;;;;;;23.82;43.82;99713.53;6308405;22;42990;-81
2021/09/28 09:35:27;;;;;;;1.37;1.27;;;;;;;23.95;44.16;99730.19;6255335;22;41658;-78
2021/09/28 09:38:05;;;;;;;1.10;1.00;;;;;;;23.94;44.42;99725.78;6254819;22;39257;-84
2021/09/28 09:40:35;;;;;;;1.00;1.00;;;;;;;23.95;43.11;99734.75;6307465;22;41661;-81
2021/09/28 09:43:04;;;;;;;2.20;1.10;;;;;;;23.83;43.17;99717.09;6280464;22;41678;-80
2021/09/28 09:45:32;;;;;;;0.90;0.80;;;;;;;23.85;43.56;99712.38;6254552;22;42705;-81
2021/09/28 09:47:59;;;;;;;0.93;0.93;;;;;;;23.95;43.12;99729.34;6280014;22;39149;-84
2021/09/28 09:50:27;;;;;;;0.80;0.80;;;;;;;23.98;43.32;99721.72;6254389;22;42156;-82
2021/09/28 09:53:10;;;;;;;2.40;0.90;;;;;;;23.86;42.69;99720.28;6280289;22;41757;-83
2021/09/28 09:55:43;;;;;;;1.33;0.80;;;;;;;23.88;42.45;99726.41;6281672;22;42728;-81
2021/09/28 09:58:12;;;;;;;0.93;0.70;;;;;;;23.86;41.57;99716.78;6254296;22;40390;-82
2021/09/28 10:00:40;;;;;;;1.63;1.07;;;;;;;23.68;42.44;99715.97;6254298;22;41955;-84
2021/09/28 10:03:10;;;;;;;0.70;0.70;;;;;;;23.44;42.39;99705.78;6280616;22;41647;-80
2021/09/28 10:05:38;;;;;;;1.00;0.90;;;;;;;23.23;42.90;99704.28;6256372;22;42532;-82
2021/09/28 10:08:09;;;;;;;2.97;0.90;;;;;;;23.17;42.91;99713.00;6281558;22;40027;-77
2021/09/28 10:10:37;;;;;;;1.23;0.83;;;;;;;23.41;42.08;99714.19;6256189;22;42004;-81
2021/09/28 10:13:07;;;;;;;1.17;1.07;;;;;;;23.45;41.65;99704.78;6256510;22;42162;-86
2021/09/28 10:15:36;;;;;;;1.33;0.60;;;;;;;23.66;41.75;99690.91;6281308;22;41504;-85
2021/09/28 10:18:05;;;;;;;0.90;0.70;;;;;;;23.98;41.24;99704.66;6308901;22;40079;-82
2021/09/28 10:20:33;;;;;;;0.83;0.70;;;;;;;24.21;41.35;99707.66;6256709;22;40931;-83
2021/09/28 10:23:14;;;;;;;0.80;0.80;;;;;;;24.28;40.85;99712.28;6255868;22;42923;-86
2021/09/28 10:25:45;;;;;;;0.80;0.80;;;;;;;24.16;41.06;99710.00;6282073;22;42348;-78
2021/09/28 10:28:31;;;;;;;0.80;0.80;;;;;;;24.34;40.52;99702.66;6308487;22;40381;-81
2021/09/28 10:31:01;;;;;;;1.00;0.70;;;;;;;24.92;40.06;99723.50;6255939;22;40818;-85
2021/09/28 10:33:36;;;;;;;0.80;0.80;;;;;;;24.67;39.78;99720.72;6256233;22;42225;-85
2021/09/28 10:36:07;;;;;;;0.60;0.60;;;;;;;25.49;38.94;99716.28;6256623;22;42366;-90
2021/09/28 10:38:53;;;;;;;0.90;0.90;;;;;;;26.59;37.37;99720.94;6255635;22;40053;-82
2021/09/28 10:41:46;;;;;;;0.90;0.80;;;;;;;27.94;35.25;99733.94;6280471;22;42070;-83
2021/09/28 10:44:50;;;;;;;0.73;0.70;;;;;;;29.15;33.13;99744.38;6255310;22;43096;-87
2021/09/28 10:47:53;;;;;;;1.27;0.60;;;;;;;30.50;31.34;99754.13;6255172;22;41328;-87
2021/09/28 10:50:30;;;;;;;0.87;0.80;;;;;;;32.13;28.45;99773.94;6256492;22;39364;-90
2021/09/28 10:52:59;;;;;;;3.93;2.80;;;;;;;33.78;27.38;99775.16;6255448;22;41991;-86
2021/09/28 10:55:39;;;;;;;0.93;0.90;;;;;;;33.67;26.30;99773.09;6255155;22;42183;-85
2021/09/28 10:58:17;;;;;;;0.97;0.83;;;;;;;32.26;27.20;99753.91;6255100;22;41264;-88
2021/09/28 11:01:13;;;;;;;0.60;0.60;;;;;;;31.08;28.69;99739.03;6255840;22;39270;-94
2021/09/28 11:03:59;;;;;;;0.70;0.70;;;;;;;30.16;29.83;99722.22;6254983;22;41117;-86
2021/09/28 11:06:48;;;;;;;0.83;0.70;;;;;;;31.19;28.73;99737.59;6282345;22;43092;-86
2021/09/28 11:09:18;;;;;;;0.70;0.70;;;;;;;31.07;28.29;99733.75;6255824;22;41428;-89
2021/09/28 11:11:50;;;;;;;0.70;0.70;;;;;;;30.50;29.30;99718.59;6255959;22;38724;-90
2021/09/28 11:14:19;;;;;;;0.60;0.60;;;;;;;29.85;30.05;99729.94;6255396;22;41627;-88
2021/09/28 11:16:53;;;;;;;0.60;0.60;;;;;;;29.26;29.68;99741.16;6255733;22;41747;-85
2021/09/28 11:19:23;;;;;;;0.77;0.77;;;;;;;28.50;30.50;99731.63;6256123;22;41110;-88
2021/09/28 11:21:50;;;;;;;0.50;0.50;;;;;;;27.81;31.35;99707.38;6256565;22;39214;-88
2021/09/28 11:24:27;;;;;;;0.80;0.80;;;;;;;27.70;32.79;99710.50;6255424;22;40855;-76
2021/09/28 11:27:01;;;;;;;1.07;0.60;;;;;;;28.63;30.65;99723.63;6281252;22;43210;-84
2021/09/28 11:29:30;;;;;;;0.57;0.53;;;;;;;29.45;29.92;99717.84;6255408;22;42107;-86
2021/09/28 11:31:58;;;;;;;1.43;1.10;;;;;;;29.49;29.40;99719.97;6256582;22;39075;-81
2021/09/28 11:34:30;;;;;;;0.53;0.50;;;;;;;29.06;30.21;99707.34;6280525;22;41074;-79
2021/09/28 11:37:02;;;;;;;0.60;0.60;;;;;;;28.73;30.23;99706.94;6280834;22;43942;-80
2021/09/28 11:39:33;;;;;;;0.60;0.60;;;;;;;31.00;28.62;99700.91;6281327;22;43128;-84
2021/09/28 11:42:01;;;;;;;0.70;0.70;;;;;;;33.66;24.65;99731.03;6255990;22;38845;-82
2021/09/28 11:44:43;;;;;;;0.80;0.80;;;;;;;35.53;22.34;99727.59;6254710;22;41034;-85
2021/09/28 11:47:16;;;;;;;0.60;0.60;;;;;;;37.03;21.18;99716.69;6280753;22;43079;-84
2021/09/28 11:49:51;;;;;;;0.65;0.50;;;;;;;38.14;19.94;99741.03;6253471;22;41433;-87